sensor_id;sensor_type;location;lat;lon;timestamp;P1;durP1;ratioP1;P2;durP2;ratioP2
78053;SDS011;67726;45.636;11.752;2023-11-21T00:00:48;45.17;;;24.52;;
78053;SDS011;67726;45.636;11.752;2023-11-21T00:03:14;44.97;;;24.57;;
78053;SDS011;67726;45.636;11.752;2023-11-21T00:05:43;43.28;;;23.38;;
78053;SDS011;67726;45.636;11.752;2023-11-21T00:08:08;47.03;;;25.17;;
78053;SDS011;67726;45.636;11.752;2023-11-21T00:10:34;39.88;;;23.67;;
78053;SDS011;67726;45.636;11.752;2023-11-21T00:13:00;42.03;;;23.60;;
78053;SDS011;67726;45.636;11.752;2023-11-21T00:15:27;40.08;;;21.52;;
78053;SDS011;67726;45.636;11.752;2023-11-21T00:17:53;39.60;;;21.30;;
78053;SDS011;67726;45.636;11.752;2023-11-21T00:20:19;40.63;;;21.77;;
78053;SDS011;67726;45.636;11.752;2023-11-21T00:22:45;43.00;;;22.80;;
78053;SDS011;67726;45.636;11.752;2023-11-21T00:25:11;38.55;;;22.42;;
78053;SDS011;67726;45.636;11.752;2023-11-21T00:27:39;38.70;;;20.30;;
78053;SDS011;67726;45.636;11.752;2023-11-21T00:30:06;34.90;;;19.98;;
78053;SDS011;67726;45.636;11.752;2023-11-21T00:32:33;35.40;;;19.77;;
78053;SDS011;67726;45.636;11.752;2023-11-21T00:35:00;34.00;;;18.98;;
78053;SDS011;67726;45.636;11.752;2023-11-21T00:37:26;36.20;;;19.77;;
78053;SDS011;67726;45.636;11.752;2023-11-21T00:39:52;38.03;;;19.73;;
78053;SDS011;67726;45.636;11.752;2023-11-21T00:42:17;37.30;;;19.93;;
78053;SDS011;67726;45.636;11.752;2023-11-21T00:44:43;33.27;;;19.17;;
78053;SDS011;67726;45.636;11.752;2023-11-21T00:47:09;32.42;;;18.75;;
78053;SDS011;67726;45.636;11.752;2023-11-21T00:49:35;32.13;;;17.40;;
78053;SDS011;67726;45.636;11.752;2023-11-21T00:52:00;24.20;;;15.65;;
78053;SDS011;67726;45.636;11.752;2023-11-21T00:54:27;30.97;;;16.47;;
78053;SDS011;67726;45.636;11.752;2023-11-21T00:56:53;30.58;;;17.40;;
78053;SDS011;67726;45.636;11.752;2023-11-21T00:59:19;32.27;;;16.80;;
78053;SDS011;67726;45.636;11.752;2023-11-21T01:01:44;31.45;;;17.23;;
78053;SDS011;67726;45.636;11.752;2023-11-21T01:04:10;28.70;;;15.43;;
78053;SDS011;67726;45.636;11.752;2023-11-21T01:06:36;29.38;;;16.75;;
78053;SDS011;67726;45.636;11.752;2023-11-21T01:09:02;29.93;;;16.53;;
78053;SDS011;67726;45.636;11.752;2023-11-21T01:11:33;32.15;;;16.50;;
78053;SDS011;67726;45.636;11.752;2023-11-21T01:14:03;28.58;;;15.90;;
78053;SDS011;67726;45.636;11.752;2023-11-21T01:16:30;28.38;;;16.08;;
78053;SDS011;67726;45.636;11.752;2023-11-21T01:18:57;29.47;;;16.10;;
78053;SDS011;67726;45.636;11.752;2023-11-21T01:21:24;33.58;;;17.00;;
78053;SDS011;67726;45.636;11.752;2023-11-21T01:23:50;32.60;;;16.48;;
78053;SDS011;67726;45.636;11.752;2023-11-21T01:26:15;28.27;;;16.43;;
78053;SDS011;67726;45.636;11.752;2023-11-21T01:28:41;29.73;;;16.67;;
78053;SDS011;67726;45.636;11.752;2023-11-21T01:31:07;27.33;;;15.70;;
78053;SDS011;67726;45.636;11.752;2023-11-21T01:33:32;34.08;;;17.80;;
78053;SDS011;67726;45.636;11.752;2023-11-21T01:35:58;32.97;;;16.90;;
78053;SDS011;67726;45.636;11.752;2023-11-21T01:38:25;32.72;;;16.42;;
78053;SDS011;67726;45.636;11.752;2023-11-21T01:40:50;32.90;;;17.15;;
78053;SDS011;67726;45.636;11.752;2023-11-21T01:43:16;29.37;;;16.47;;
78053;SDS011;67726;45.636;11.752;2023-11-21T01:45:42;31.35;;;16.65;;
78053;SDS011;67726;45.636;11.752;2023-11-21T01:48:10;29.50;;;15.82;;
78053;SDS011;67726;45.636;11.752;2023-11-21T01:50:35;32.80;;;16.73;;
78053;SDS011;67726;45.636;11.752;2023-11-21T01:53:01;27.25;;;15.98;;
78053;SDS011;67726;45.636;11.752;2023-11-21T01:55:28;32.80;;;17.58;;
78053;SDS011;67726;45.636;11.752;2023-11-21T01:57:57;33.45;;;17.10;;
78053;SDS011;67726;45.636;11.752;2023-11-21T02:00:23;29.83;;;16.42;;
78053;SDS011;67726;45.636;11.752;2023-11-21T02:02:50;34.47;;;18.00;;
78053;SDS011;67726;45.636;11.752;2023-11-21T02:05:16;29.42;;;17.02;;
78053;SDS011;67726;45.636;11.752;2023-11-21T02:07:43;30.80;;;16.88;;
78053;SDS011;67726;45.636;11.752;2023-11-21T02:10:10;33.08;;;16.42;;
78053;SDS011;67726;45.636;11.752;2023-11-21T02:12:39;30.08;;;15.57;;
78053;SDS011;67726;45.636;11.752;2023-11-21T02:15:12;32.83;;;16.10;;
78053;SDS011;67726;45.636;11.752;2023-11-21T02:17:51;33.67;;;18.17;;
78053;SDS011;67726;45.636;11.752;2023-11-21T02:20:18;36.45;;;18.45;;
78053;SDS011;67726;45.636;11.752;2023-11-21T02:22:52;31.58;;;17.85;;
78053;SDS011;67726;45.636;11.752;2023-11-21T02:25:23;30.63;;;17.65;;
78053;SDS011;67726;45.636;11.752;2023-11-21T02:27:59;33.07;;;17.67;;
78053;SDS011;67726;45.636;11.752;2023-11-21T02:30:26;32.83;;;17.85;;
78053;SDS011;67726;45.636;11.752;2023-11-21T02:32:53;38.10;;;17.65;;
78053;SDS011;67726;45.636;11.752;2023-11-21T02:35:20;34.65;;;18.83;;
78053;SDS011;67726;45.636;11.752;2023-11-21T02:37:46;32.13;;;17.17;;
78053;SDS011;67726;45.636;11.752;2023-11-21T02:40:12;32.37;;;17.50;;
78053;SDS011;67726;45.636;11.752;2023-11-21T02:42:42;33.80;;;18.05;;
78053;SDS011;67726;45.636;11.752;2023-11-21T02:45:12;33.00;;;17.98;;
78053;SDS011;67726;45.636;11.752;2023-11-21T02:47:41;32.58;;;17.60;;
78053;SDS011;67726;45.636;11.752;2023-11-21T02:50:07;35.60;;;18.25;;
78053;SDS011;67726;45.636;11.752;2023-11-21T02:52:34;33.80;;;18.23;;
78053;SDS011;67726;45.636;11.752;2023-11-21T02:55:00;30.77;;;16.60;;
78053;SDS011;67726;45.636;11.752;2023-11-21T02:57:27;30.33;;;16.98;;
78053;SDS011;67726;45.636;11.752;2023-11-21T02:59:52;31.93;;;17.07;;
78053;SDS011;67726;45.636;11.752;2023-11-21T03:02:18;35.97;;;18.45;;
78053;SDS011;67726;45.636;11.752;2023-11-21T03:04:43;32.30;;;18.00;;
78053;SDS011;67726;45.636;11.752;2023-11-21T03:07:09;35.70;;;17.50;;
78053;SDS011;67726;45.636;11.752;2023-11-21T03:09:35;33.00;;;18.00;;
78053;SDS011;67726;45.636;11.752;2023-11-21T03:12:01;31.45;;;17.50;;
78053;SDS011;67726;45.636;11.752;2023-11-21T03:14:27;33.45;;;17.08;;
78053;SDS011;67726;45.636;11.752;2023-11-21T03:16:52;35.73;;;19.00;;
78053;SDS011;67726;45.636;11.752;2023-11-21T03:19:18;34.78;;;19.20;;
78053;SDS011;67726;45.636;11.752;2023-11-21T03:21:44;31.53;;;18.13;;
78053;SDS011;67726;45.636;11.752;2023-11-21T03:24:09;33.77;;;18.13;;
78053;SDS011;67726;45.636;11.752;2023-11-21T03:26:35;36.20;;;20.17;;
78053;SDS011;67726;45.636;11.752;2023-11-21T03:29:02;36.10;;;19.65;;
78053;SDS011;67726;45.636;11.752;2023-11-21T03:31:28;32.97;;;19.37;;
78053;SDS011;67726;45.636;11.752;2023-11-21T03:33:53;34.35;;;19.25;;
78053;SDS011;67726;45.636;11.752;2023-11-21T03:36:19;38.87;;;20.87;;
78053;SDS011;67726;45.636;11.752;2023-11-21T03:38:45;38.30;;;19.40;;
78053;SDS011;67726;45.636;11.752;2023-11-21T03:41:13;39.97;;;20.50;;
78053;SDS011;67726;45.636;11.752;2023-11-21T03:43:39;36.63;;;18.30;;
78053;SDS011;67726;45.636;11.752;2023-11-21T03:46:05;34.28;;;18.85;;
78053;SDS011;67726;45.636;11.752;2023-11-21T03:48:32;39.72;;;20.45;;
78053;SDS011;67726;45.636;11.752;2023-11-21T03:50:58;43.60;;;21.00;;
78053;SDS011;67726;45.636;11.752;2023-11-21T03:53:23;46.72;;;22.13;;
78053;SDS011;67726;45.636;11.752;2023-11-21T03:55:49;42.83;;;21.33;;
78053;SDS011;67726;45.636;11.752;2023-11-21T03:58:15;36.35;;;19.20;;
78053;SDS011;67726;45.636;11.752;2023-11-21T04:00:40;32.43;;;17.00;;
78053;SDS011;67726;45.636;11.752;2023-11-21T04:03:06;30.95;;;16.27;;
78053;SDS011;67726;45.636;11.752;2023-11-21T04:05:32;36.73;;;18.70;;
78053;SDS011;67726;45.636;11.752;2023-11-21T04:07:58;30.83;;;15.57;;
78053;SDS011;67726;45.636;11.752;2023-11-21T04:10:23;30.00;;;16.70;;
78053;SDS011;67726;45.636;11.752;2023-11-21T04:12:49;30.15;;;15.48;;
78053;SDS011;67726;45.636;11.752;2023-11-21T04:15:15;34.53;;;16.60;;
78053;SDS011;67726;45.636;11.752;2023-11-21T04:17:41;27.13;;;14.93;;
78053;SDS011;67726;45.636;11.752;2023-11-21T04:20:07;33.65;;;16.08;;
78053;SDS011;67726;45.636;11.752;2023-11-21T04:22:38;28.37;;;14.87;;
78053;SDS011;67726;45.636;11.752;2023-11-21T04:25:12;26.65;;;15.50;;
78053;SDS011;67726;45.636;11.752;2023-11-21T04:27:40;30.95;;;14.68;;
78053;SDS011;67726;45.636;11.752;2023-11-21T04:30:08;29.45;;;15.57;;
78053;SDS011;67726;45.636;11.752;2023-11-21T04:32:38;29.17;;;15.32;;
78053;SDS011;67726;45.636;11.752;2023-11-21T04:35:07;30.10;;;14.93;;
78053;SDS011;67726;45.636;11.752;2023-11-21T04:37:33;28.45;;;15.63;;
78053;SDS011;67726;45.636;11.752;2023-11-21T04:39:59;29.58;;;16.35;;
78053;SDS011;67726;45.636;11.752;2023-11-21T04:42:25;42.30;;;20.77;;
78053;SDS011;67726;45.636;11.752;2023-11-21T04:44:51;36.37;;;19.00;;
78053;SDS011;67726;45.636;11.752;2023-11-21T04:47:17;37.25;;;18.90;;
78053;SDS011;67726;45.636;11.752;2023-11-21T04:49:45;32.92;;;19.27;;
78053;SDS011;67726;45.636;11.752;2023-11-21T04:52:14;38.87;;;19.50;;
78053;SDS011;67726;45.636;11.752;2023-11-21T04:54:40;37.65;;;17.88;;
78053;SDS011;67726;45.636;11.752;2023-11-21T04:57:05;34.63;;;17.80;;
78053;SDS011;67726;45.636;11.752;2023-11-21T04:59:32;36.28;;;18.45;;
78053;SDS011;67726;45.636;11.752;2023-11-21T05:01:59;39.72;;;20.42;;
78053;SDS011;67726;45.636;11.752;2023-11-21T05:04:25;35.08;;;20.33;;
78053;SDS011;67726;45.636;11.752;2023-11-21T05:06:51;34.80;;;19.23;;
78053;SDS011;67726;45.636;11.752;2023-11-21T05:09:16;38.17;;;20.05;;
78053;SDS011;67726;45.636;11.752;2023-11-21T05:11:42;36.47;;;19.05;;
78053;SDS011;67726;45.636;11.752;2023-11-21T05:14:08;34.70;;;18.73;;
78053;SDS011;67726;45.636;11.752;2023-11-21T05:16:34;35.45;;;18.70;;
78053;SDS011;67726;45.636;11.752;2023-11-21T05:19:00;37.20;;;18.33;;
78053;SDS011;67726;45.636;11.752;2023-11-21T05:21:26;32.20;;;16.75;;
78053;SDS011;67726;45.636;11.752;2023-11-21T05:23:54;34.03;;;17.02;;
78053;SDS011;67726;45.636;11.752;2023-11-21T05:26:20;30.73;;;16.67;;
78053;SDS011;67726;45.636;11.752;2023-11-21T05:28:45;34.92;;;17.88;;
78053;SDS011;67726;45.636;11.752;2023-11-21T05:31:11;30.50;;;16.10;;
78053;SDS011;67726;45.636;11.752;2023-11-21T05:33:37;22.73;;;13.15;;
78053;SDS011;67726;45.636;11.752;2023-11-21T05:36:03;20.20;;;10.55;;
78053;SDS011;67726;45.636;11.752;2023-11-21T05:38:29;19.87;;;11.03;;
78053;SDS011;67726;45.636;11.752;2023-11-21T05:40:55;21.00;;;10.90;;
78053;SDS011;67726;45.636;11.752;2023-11-21T05:43:20;21.98;;;10.95;;
78053;SDS011;67726;45.636;11.752;2023-11-21T05:45:46;22.13;;;10.57;;
78053;SDS011;67726;45.636;11.752;2023-11-21T05:48:12;18.85;;;10.10;;
78053;SDS011;67726;45.636;11.752;2023-11-21T05:50:38;15.63;;;9.47;;
78053;SDS011;67726;45.636;11.752;2023-11-21T05:53:03;20.83;;;10.13;;
78053;SDS011;67726;45.636;11.752;2023-11-21T05:55:29;20.90;;;12.47;;
78053;SDS011;67726;45.636;11.752;2023-11-21T05:57:56;18.95;;;10.80;;
78053;SDS011;67726;45.636;11.752;2023-11-21T06:00:21;22.48;;;10.95;;
78053;SDS011;67726;45.636;11.752;2023-11-21T06:02:48;19.33;;;11.60;;
78053;SDS011;67726;45.636;11.752;2023-11-21T06:05:23;22.02;;;11.60;;
78053;SDS011;67726;45.636;11.752;2023-11-21T06:07:50;21.75;;;12.93;;
78053;SDS011;67726;45.636;11.752;2023-11-21T06:10:19;26.50;;;15.82;;
78053;SDS011;67726;45.636;11.752;2023-11-21T06:12:46;30.70;;;18.00;;
78053;SDS011;67726;45.636;11.752;2023-11-21T06:15:12;32.13;;;17.08;;
78053;SDS011;67726;45.636;11.752;2023-11-21T06:17:39;24.63;;;14.38;;
78053;SDS011;67726;45.636;11.752;2023-11-21T06:20:05;23.33;;;13.23;;
78053;SDS011;67726;45.636;11.752;2023-11-21T06:22:39;26.17;;;12.70;;
78053;SDS011;67726;45.636;11.752;2023-11-21T06:25:06;23.77;;;12.90;;
78053;SDS011;67726;45.636;11.752;2023-11-21T06:27:40;24.02;;;13.27;;
78053;SDS011;67726;45.636;11.752;2023-11-21T06:30:07;27.20;;;12.75;;
78053;SDS011;67726;45.636;11.752;2023-11-21T06:32:34;26.00;;;13.27;;
78053;SDS011;67726;45.636;11.752;2023-11-21T06:35:01;23.57;;;12.77;;
78053;SDS011;67726;45.636;11.752;2023-11-21T06:37:30;24.08;;;13.32;;
78053;SDS011;67726;45.636;11.752;2023-11-21T06:39:57;25.60;;;13.57;;
78053;SDS011;67726;45.636;11.752;2023-11-21T06:42:24;25.48;;;13.32;;
78053;SDS011;67726;45.636;11.752;2023-11-21T06:44:50;28.73;;;14.52;;
78053;SDS011;67726;45.636;11.752;2023-11-21T06:47:22;27.67;;;15.17;;
78053;SDS011;67726;45.636;11.752;2023-11-21T06:49:50;25.52;;;14.15;;
78053;SDS011;67726;45.636;11.752;2023-11-21T06:52:16;26.40;;;14.27;;
78053;SDS011;67726;45.636;11.752;2023-11-21T06:54:43;28.85;;;14.70;;
78053;SDS011;67726;45.636;11.752;2023-11-21T06:57:09;25.87;;;13.97;;
78053;SDS011;67726;45.636;11.752;2023-11-21T06:59:34;26.92;;;14.50;;
78053;SDS011;67726;45.636;11.752;2023-11-21T07:02:00;26.00;;;15.10;;
78053;SDS011;67726;45.636;11.752;2023-11-21T07:04:26;28.30;;;15.47;;
78053;SDS011;67726;45.636;11.752;2023-11-21T07:06:55;29.93;;;16.70;;
78053;SDS011;67726;45.636;11.752;2023-11-21T07:09:21;28.83;;;17.13;;
78053;SDS011;67726;45.636;11.752;2023-11-21T07:11:51;26.17;;;15.57;;
78053;SDS011;67726;45.636;11.752;2023-11-21T07:14:20;31.45;;;16.17;;
78053;SDS011;67726;45.636;11.752;2023-11-21T07:16:46;29.65;;;15.73;;
78053;SDS011;67726;45.636;11.752;2023-11-21T07:19:12;28.90;;;15.13;;
78053;SDS011;67726;45.636;11.752;2023-11-21T07:21:38;27.10;;;15.63;;
78053;SDS011;67726;45.636;11.752;2023-11-21T07:24:05;31.50;;;17.30;;
78053;SDS011;67726;45.636;11.752;2023-11-21T07:26:32;31.00;;;17.63;;
78053;SDS011;67726;45.636;11.752;2023-11-21T07:29:01;30.33;;;16.95;;
78053;SDS011;67726;45.636;11.752;2023-11-21T07:31:28;32.70;;;18.70;;
78053;SDS011;67726;45.636;11.752;2023-11-21T07:33:54;32.57;;;18.30;;
78053;SDS011;67726;45.636;11.752;2023-11-21T07:36:22;35.75;;;18.40;;
78053;SDS011;67726;45.636;11.752;2023-11-21T07:38:48;36.60;;;19.48;;
78053;SDS011;67726;45.636;11.752;2023-11-21T07:41:14;40.83;;;21.30;;
78053;SDS011;67726;45.636;11.752;2023-11-21T07:43:43;49.15;;;23.15;;
78053;SDS011;67726;45.636;11.752;2023-11-21T07:46:09;41.67;;;20.60;;
78053;SDS011;67726;45.636;11.752;2023-11-21T07:48:37;32.85;;;19.15;;
78053;SDS011;67726;45.636;11.752;2023-11-21T07:51:11;37.38;;;18.13;;
78053;SDS011;67726;45.636;11.752;2023-11-21T07:53:38;34.37;;;18.87;;
78053;SDS011;67726;45.636;11.752;2023-11-21T07:56:05;33.17;;;16.58;;
78053;SDS011;67726;45.636;11.752;2023-11-21T07:58:32;31.85;;;17.67;;
78053;SDS011;67726;45.636;11.752;2023-11-21T08:01:02;30.65;;;16.33;;
78053;SDS011;67726;45.636;11.752;2023-11-21T08:03:28;31.02;;;16.10;;
78053;SDS011;67726;45.636;11.752;2023-11-21T08:05:55;32.23;;;16.03;;
78053;SDS011;67726;45.636;11.752;2023-11-21T08:08:24;31.58;;;15.18;;
78053;SDS011;67726;45.636;11.752;2023-11-21T08:10:51;25.58;;;15.25;;
78053;SDS011;67726;45.636;11.752;2023-11-21T08:13:26;27.42;;;14.77;;
78053;SDS011;67726;45.636;11.752;2023-11-21T08:15:55;28.20;;;14.75;;
78053;SDS011;67726;45.636;11.752;2023-11-21T08:18:26;22.13;;;12.10;;
78053;SDS011;67726;45.636;11.752;2023-11-21T08:20:52;19.08;;;11.35;;
78053;SDS011;67726;45.636;11.752;2023-11-21T08:23:20;15.23;;;9.43;;
78053;SDS011;67726;45.636;11.752;2023-11-21T08:25:46;16.73;;;9.05;;
78053;SDS011;67726;45.636;11.752;2023-11-21T08:28:12;16.60;;;9.30;;
78053;SDS011;67726;45.636;11.752;2023-11-21T08:30:39;14.98;;;8.20;;
78053;SDS011;67726;45.636;11.752;2023-11-21T08:33:06;15.00;;;8.57;;
78053;SDS011;67726;45.636;11.752;2023-11-21T08:35:33;17.08;;;8.95;;
78053;SDS011;67726;45.636;11.752;2023-11-21T08:37:59;14.98;;;8.07;;
78053;SDS011;67726;45.636;11.752;2023-11-21T08:40:25;15.20;;;8.60;;
78053;SDS011;67726;45.636;11.752;2023-11-21T08:42:51;16.58;;;7.95;;
78053;SDS011;67726;45.636;11.752;2023-11-21T08:45:17;14.73;;;8.65;;
78053;SDS011;67726;45.636;11.752;2023-11-21T08:47:44;14.73;;;8.73;;
78053;SDS011;67726;45.636;11.752;2023-11-21T08:50:10;18.55;;;11.38;;
78053;SDS011;67726;45.636;11.752;2023-11-21T08:52:40;23.00;;;10.45;;
78053;SDS011;67726;45.636;11.752;2023-11-21T08:55:06;16.58;;;9.70;;
78053;SDS011;67726;45.636;11.752;2023-11-21T08:57:37;16.13;;;9.48;;
78053;SDS011;67726;45.636;11.752;2023-11-21T09:00:06;22.10;;;10.50;;
78053;SDS011;67726;45.636;11.752;2023-11-21T09:02:42;18.15;;;9.90;;
78053;SDS011;67726;45.636;11.752;2023-11-21T09:05:12;18.27;;;10.20;;
78053;SDS011;67726;45.636;11.752;2023-11-21T09:07:39;22.52;;;9.98;;
78053;SDS011;67726;45.636;11.752;2023-11-21T09:10:06;20.08;;;10.68;;
78053;SDS011;67726;45.636;11.752;2023-11-21T09:12:32;19.33;;;10.17;;
78053;SDS011;67726;45.636;11.752;2023-11-21T09:15:05;20.40;;;10.68;;
78053;SDS011;67726;45.636;11.752;2023-11-21T09:17:34;17.55;;;11.13;;
78053;SDS011;67726;45.636;11.752;2023-11-21T09:20:00;22.38;;;12.20;;
78053;SDS011;67726;45.636;11.752;2023-11-21T09:22:28;25.30;;;13.68;;
78053;SDS011;67726;45.636;11.752;2023-11-21T09:24:55;20.60;;;12.03;;
78053;SDS011;67726;45.636;11.752;2023-11-21T09:27:22;21.67;;;12.38;;
78053;SDS011;67726;45.636;11.752;2023-11-21T09:29:48;26.67;;;13.77;;
78053;SDS011;67726;45.636;11.752;2023-11-21T09:32:14;20.30;;;11.57;;
78053;SDS011;67726;45.636;11.752;2023-11-21T09:34:41;25.47;;;13.30;;
78053;SDS011;67726;45.636;11.752;2023-11-21T09:37:08;21.40;;;12.50;;
78053;SDS011;67726;45.636;11.752;2023-11-21T09:39:34;25.40;;;14.23;;
78053;SDS011;67726;45.636;11.752;2023-11-21T09:42:12;26.83;;;14.70;;
78053;SDS011;67726;45.636;11.752;2023-11-21T09:47:52;27.73;;;16.77;;
78053;SDS011;67726;45.636;11.752;2023-11-21T09:50:20;31.42;;;16.83;;
78053;SDS011;67726;45.636;11.752;2023-11-21T09:55:43;43.95;;;21.35;;
78053;SDS011;67726;45.636;11.752;2023-11-21T09:58:10;35.63;;;18.47;;
78053;SDS011;67726;45.636;11.752;2023-11-21T10:00:40;35.35;;;19.80;;
78053;SDS011;67726;45.636;11.752;2023-11-21T10:03:07;38.85;;;18.70;;
78053;SDS011;67726;45.636;11.752;2023-11-21T10:05:34;47.35;;;24.15;;
78053;SDS011;67726;45.636;11.752;2023-11-21T10:08:00;39.60;;;21.92;;
78053;SDS011;67726;45.636;11.752;2023-11-21T10:10:26;40.50;;;19.83;;
78053;SDS011;67726;45.636;11.752;2023-11-21T10:12:55;37.13;;;18.70;;
78053;SDS011;67726;45.636;11.752;2023-11-21T10:15:22;33.85;;;16.75;;
78053;SDS011;67726;45.636;11.752;2023-11-21T10:17:50;34.33;;;16.80;;
78053;SDS011;67726;45.636;11.752;2023-11-21T10:20:18;35.20;;;17.65;;
78053;SDS011;67726;45.636;11.752;2023-11-21T10:22:49;32.65;;;16.13;;
78053;SDS011;67726;45.636;11.752;2023-11-21T10:25:15;42.58;;;18.17;;
78053;SDS011;67726;45.636;11.752;2023-11-21T10:27:41;50.42;;;21.00;;
78053;SDS011;67726;45.636;11.752;2023-11-21T10:30:08;44.27;;;19.77;;
78053;SDS011;67726;45.636;11.752;2023-11-21T10:32:41;36.22;;;17.13;;
78053;SDS011;67726;45.636;11.752;2023-11-21T10:35:07;31.55;;;15.73;;
78053;SDS011;67726;45.636;11.752;2023-11-21T10:37:38;25.83;;;14.27;;
78053;SDS011;67726;45.636;11.752;2023-11-21T10:40:10;28.73;;;12.85;;
78053;SDS011;67726;45.636;11.752;2023-11-21T10:42:39;24.40;;;12.90;;
78053;SDS011;67726;45.636;11.752;2023-11-21T10:45:06;25.10;;;14.80;;
78053;SDS011;67726;45.636;11.752;2023-11-21T10:47:41;29.38;;;15.57;;
78053;SDS011;67726;45.636;11.752;2023-11-21T10:50:07;30.55;;;16.88;;
78053;SDS011;67726;45.636;11.752;2023-11-21T10:52:42;26.45;;;14.63;;
78053;SDS011;67726;45.636;11.752;2023-11-21T10:55:18;26.40;;;16.03;;
78053;SDS011;67726;45.636;11.752;2023-11-21T10:57:48;25.60;;;15.75;;
78053;SDS011;67726;45.636;11.752;2023-11-21T11:00:16;28.52;;;16.27;;
78053;SDS011;67726;45.636;11.752;2023-11-21T11:02:45;25.27;;;15.43;;
78053;SDS011;67726;45.636;11.752;2023-11-21T11:05:15;24.70;;;15.40;;
78053;SDS011;67726;45.636;11.752;2023-11-21T11:07:56;25.93;;;13.97;;
78053;SDS011;67726;45.636;11.752;2023-11-21T11:10:30;25.02;;;14.52;;
78053;SDS011;67726;45.636;11.752;2023-11-21T11:12:56;23.65;;;14.32;;
78053;SDS011;67726;45.636;11.752;2023-11-21T11:15:23;25.52;;;15.60;;
78053;SDS011;67726;45.636;11.752;2023-11-21T11:17:52;29.13;;;16.50;;
78053;SDS011;67726;45.636;11.752;2023-11-21T11:20:22;25.30;;;13.80;;
78053;SDS011;67726;45.636;11.752;2023-11-21T11:39:28;13.85;;;6.95;;
78053;SDS011;67726;45.636;11.752;2023-11-21T11:41:57;10.77;;;5.72;;
78053;SDS011;67726;45.636;11.752;2023-11-21T11:44:47;11.77;;;6.22;;
78053;SDS011;67726;45.636;11.752;2023-11-21T11:47:20;11.13;;;6.40;;
78053;SDS011;67726;45.636;11.752;2023-11-21T11:50:11;11.38;;;6.28;;
78053;SDS011;67726;45.636;11.752;2023-11-21T11:55:16;16.73;;;7.97;;
78053;SDS011;67726;45.636;11.752;2023-11-21T11:57:43;18.67;;;9.13;;
78053;SDS011;67726;45.636;11.752;2023-11-21T12:02:46;19.90;;;10.98;;
78053;SDS011;67726;45.636;11.752;2023-11-21T12:05:14;21.25;;;10.10;;
78053;SDS011;67726;45.636;11.752;2023-11-21T12:07:46;15.43;;;9.63;;
78053;SDS011;67726;45.636;11.752;2023-11-21T12:10:17;16.05;;;9.23;;
78053;SDS011;67726;45.636;11.752;2023-11-21T12:12:47;16.10;;;8.67;;
78053;SDS011;67726;45.636;11.752;2023-11-21T12:15:14;18.00;;;10.13;;
78053;SDS011;67726;45.636;11.752;2023-11-21T12:17:41;15.93;;;10.25;;
78053;SDS011;67726;45.636;11.752;2023-11-21T12:20:08;15.15;;;9.27;;
78053;SDS011;67726;45.636;11.752;2023-11-21T12:25:15;18.27;;;9.47;;
78053;SDS011;67726;45.636;11.752;2023-11-21T12:27:49;18.80;;;9.82;;
78053;SDS011;67726;45.636;11.752;2023-11-21T12:30:16;17.15;;;10.07;;
78053;SDS011;67726;45.636;11.752;2023-11-21T12:32:44;16.52;;;10.82;;
78053;SDS011;67726;45.636;11.752;2023-11-21T12:35:12;15.85;;;9.18;;
78053;SDS011;67726;45.636;11.752;2023-11-21T12:37:39;15.10;;;8.87;;
78053;SDS011;67726;45.636;11.752;2023-11-21T12:40:07;18.70;;;9.27;;
78053;SDS011;67726;45.636;11.752;2023-11-21T12:42:36;18.95;;;10.05;;
78053;SDS011;67726;45.636;11.752;2023-11-21T12:47:45;16.40;;;9.10;;
78053;SDS011;67726;45.636;11.752;2023-11-21T12:50:14;19.53;;;9.27;;
78053;SDS011;67726;45.636;11.752;2023-11-21T12:52:46;16.83;;;9.55;;
78053;SDS011;67726;45.636;11.752;2023-11-21T12:55:18;15.95;;;9.50;;
78053;SDS011;67726;45.636;11.752;2023-11-21T12:57:48;20.35;;;10.30;;
78053;SDS011;67726;45.636;11.752;2023-11-21T13:00:19;17.73;;;10.03;;
78053;SDS011;67726;45.636;11.752;2023-11-21T13:02:53;18.70;;;10.38;;
78053;SDS011;67726;45.636;11.752;2023-11-21T13:05:33;20.73;;;11.60;;
78053;SDS011;67726;45.636;11.752;2023-11-21T13:08:01;25.17;;;14.10;;
78053;SDS011;67726;45.636;11.752;2023-11-21T13:10:29;26.17;;;14.75;;
78053;SDS011;67726;45.636;11.752;2023-11-21T13:12:58;24.30;;;14.50;;
78053;SDS011;67726;45.636;11.752;2023-11-21T13:15:25;22.23;;;12.95;;
78053;SDS011;67726;45.636;11.752;2023-11-21T13:17:56;24.55;;;13.85;;
78053;SDS011;67726;45.636;11.752;2023-11-21T13:20:23;22.77;;;13.45;;
78053;SDS011;67726;45.636;11.752;2023-11-21T13:22:52;23.25;;;13.90;;
78053;SDS011;67726;45.636;11.752;2023-11-21T13:25:22;28.53;;;16.37;;
78053;SDS011;67726;45.636;11.752;2023-11-21T13:27:56;27.10;;;15.93;;
78053;SDS011;67726;45.636;11.752;2023-11-21T13:30:23;29.33;;;17.33;;
78053;SDS011;67726;45.636;11.752;2023-11-21T13:32:58;27.50;;;18.38;;
78053;SDS011;67726;45.636;11.752;2023-11-21T13:35:30;29.55;;;18.58;;
78053;SDS011;67726;45.636;11.752;2023-11-21T13:38:06;27.33;;;17.53;;
78053;SDS011;67726;45.636;11.752;2023-11-21T13:40:33;24.52;;;16.50;;
78053;SDS011;67726;45.636;11.752;2023-11-21T13:43:09;25.08;;;16.38;;
78053;SDS011;67726;45.636;11.752;2023-11-21T13:45:36;26.08;;;17.38;;
78053;SDS011;67726;45.636;11.752;2023-11-21T13:48:04;27.88;;;17.75;;
78053;SDS011;67726;45.636;11.752;2023-11-21T13:50:35;29.13;;;17.50;;
78053;SDS011;67726;45.636;11.752;2023-11-21T13:53:20;27.10;;;15.43;;
78053;SDS011;67726;45.636;11.752;2023-11-21T13:55:52;24.98;;;15.10;;
78053;SDS011;67726;45.636;11.752;2023-11-21T13:58:19;29.10;;;16.20;;
78053;SDS011;67726;45.636;11.752;2023-11-21T14:01:00;28.95;;;16.65;;
78053;SDS011;67726;45.636;11.752;2023-11-21T14:03:26;37.00;;;18.27;;
78053;SDS011;67726;45.636;11.752;2023-11-21T14:06:12;33.75;;;17.73;;
78053;SDS011;67726;45.636;11.752;2023-11-21T14:08:45;27.70;;;16.15;;
78053;SDS011;67726;45.636;11.752;2023-11-21T14:11:12;27.40;;;15.55;;
78053;SDS011;67726;45.636;11.752;2023-11-21T14:13:42;24.58;;;14.70;;
78053;SDS011;67726;45.636;11.752;2023-11-21T14:16:11;29.33;;;15.50;;
78053;SDS011;67726;45.636;11.752;2023-11-21T14:18:39;29.48;;;16.10;;
78053;SDS011;67726;45.636;11.752;2023-11-21T14:21:17;29.17;;;16.73;;
78053;SDS011;67726;45.636;11.752;2023-11-21T14:23:43;30.08;;;17.05;;
78053;SDS011;67726;45.636;11.752;2023-11-21T14:26:10;32.92;;;17.73;;
78053;SDS011;67726;45.636;11.752;2023-11-21T14:28:40;29.37;;;17.43;;
78053;SDS011;67726;45.636;11.752;2023-11-21T14:31:06;26.35;;;16.35;;
78053;SDS011;67726;45.636;11.752;2023-11-21T14:33:32;23.45;;;15.77;;
78053;SDS011;67726;45.636;11.752;2023-11-21T14:35:58;25.17;;;15.90;;
78053;SDS011;67726;45.636;11.752;2023-11-21T14:38:24;21.42;;;13.25;;
78053;SDS011;67726;45.636;11.752;2023-11-21T14:40:50;20.95;;;12.00;;
78053;SDS011;67726;45.636;11.752;2023-11-21T14:43:15;21.40;;;12.00;;
78053;SDS011;67726;45.636;11.752;2023-11-21T14:45:42;21.20;;;11.85;;
78053;SDS011;67726;45.636;11.752;2023-11-21T14:48:08;17.17;;;10.30;;